Time;durP1;ratioP1;P1;durP2;ratioP2;P2;SDS_P1;SDS_P2;PMS_P1;PMS_P2;Temp;Humidity;BMP_temperature;BMP_pressure;BME280_temperature;BME280_humidity;BME280_pressure;Samples;Min_cycle;Max_cycle;Signal;HPM_P1;HPM_P2
2024/03/18 00:02:22;;;;;;;0.17;0.17;;;;;;;8.84;100.00;99432.88;5051548;28;20060;-58
2024/03/18 00:04:50;;;;;;;0.28;0.28;;;;;;;8.76;100.00;99425.19;5059402;28;20114;-58
2024/03/18 00:07:18;;;;;;;0.20;0.20;;;;;;;8.87;100.00;99422.78;5054054;28;20049;-58
2024/03/18 00:09:46;;;;;;;0.20;0.20;;;;;;;8.73;100.00;99420.28;5049314;28;20049;-58
2024/03/18 00:12:13;;;;;;;0.32;0.32;;;;;;;8.73;100.00;99422.94;5054168;28;20411;-58
2024/03/18 00:14:43;;;;;;;0.30;0.30;;;;;;;8.71;100.00;99414.38;5052192;28;20037;-58
2024/03/18 00:17:10;;;;;;;0.32;0.32;;;;;;;8.75;100.00;99412.84;5057585;28;20464;-58
2024/03/18 00:19:37;;;;;;;0.20;0.20;;;;;;;8.76;100.00;99409.16;5052627;28;20068;-58
2024/03/18 00:22:05;;;;;;;0.30;0.30;;;;;;;8.44;100.00;99405.88;5056644;28;20818;-57
2024/03/18 00:24:33;;;;;;;0.22;0.22;;;;;;;8.57;100.00;99407.56;5060464;28;20040;-58
2024/03/18 00:27:00;;;;;;;0.25;0.25;;;;;;;8.42;100.00;99403.41;5060026;28;20133;-58
2024/03/18 00:29:28;;;;;;;0.30;0.30;;;;;;;8.30;100.00;99407.84;5051851;28;20044;-58
2024/03/18 00:31:54;;;;;;;0.25;0.25;;;;;;;8.34;100.00;99394.88;5060856;28;20049;-57
2024/03/18 00:34:22;;;;;;;0.30;0.30;;;;;;;8.49;100.00;99397.19;5053515;28;20096;-58
2024/03/18 00:36:49;;;;;;;0.30;0.30;;;;;;;8.38;100.00;99391.50;5059222;28;20036;-58
2024/03/18 00:39:15;;;;;;;0.30;0.30;;;;;;;8.43;100.00;99389.00;5059497;28;20391;-58
2024/03/18 00:41:46;;;;;;;0.25;0.25;;;;;;;8.46;100.00;99381.59;5061120;28;20044;-57
2024/03/18 00:44:15;;;;;;;0.30;0.30;;;;;;;8.53;100.00;99387.66;5053139;28;20566;-58
2024/03/18 00:46:44;;;;;;;0.30;0.30;;;;;;;8.54;100.00;99375.94;5054874;28;20048;-58
2024/03/18 00:49:11;;;;;;;0.30;0.30;;;;;;;8.65;100.00;99375.19;5048394;28;20040;-58
2024/03/18 00:51:38;;;;;;;0.30;0.30;;;;;;;8.52;100.00;99372.69;5063757;28;20033;-58
2024/03/18 00:54:05;;;;;;;0.30;0.30;;;;;;;8.62;100.00;99370.28;5050184;28;20047;-58
2024/03/18 00:56:33;;;;;;;0.30;0.30;;;;;;;8.73;100.00;99380.19;5049474;28;20665;-58
2024/03/18 00:59:01;;;;;;;0.30;0.30;;;;;;;8.68;100.00;99373.91;5057568;28;20534;-58
2024/03/18 01:01:28;;;;;;;0.40;0.40;;;;;;;8.63;100.00;99364.69;5059311;28;20048;-58
2024/03/18 01:03:56;;;;;;;0.20;0.20;;;;;;;8.75;100.00;99367.44;5058451;28;20083;-58
2024/03/18 01:06:24;;;;;;;0.30;0.30;;;;;;;8.71;100.00;99360.94;5050548;28;20049;-58
2024/03/18 01:08:51;;;;;;;0.20;0.20;;;;;;;8.61;100.00;99357.94;5054895;28;20110;-58
2024/03/18 01:11:19;;;;;;;0.20;0.20;;;;;;;8.65;100.00;99364.50;5057002;28;20124;-58
2024/03/18 01:13:47;;;;;;;0.20;0.20;;;;;;;8.62;100.00;99364.94;5054296;28;20063;-58
2024/03/18 01:16:15;;;;;;;0.20;0.20;;;;;;;8.73;100.00;99361.50;5050715;28;20098;-58
2024/03/18 01:18:43;;;;;;;0.20;0.20;;;;;;;8.73;100.00;99356.16;5061284;28;20055;-58
2024/03/18 01:21:10;;;;;;;0.20;0.20;;;;;;;8.68;100.00;99363.22;5054697;28;20368;-58
2024/03/18 01:23:37;;;;;;;0.20;0.20;;;;;;;8.76;100.00;99355.72;5058451;28;20120;-58
2024/03/18 01:26:04;;;;;;;0.30;0.30;;;;;;;8.79;100.00;99360.59;5050668;28;20583;-58
2024/03/18 01:28:31;;;;;;;0.25;0.25;;;;;;;8.77;100.00;99357.34;5053419;28;20056;-58
2024/03/18 01:31:03;;;;;;;0.30;0.30;;;;;;;8.88;100.00;99358.41;5066934;28;20243;-58
2024/03/18 01:33:32;;;;;;;0.30;0.30;;;;;;;8.96;100.00;99354.59;5056292;28;20139;-60
2024/03/18 01:35:59;;;;;;;0.28;0.28;;;;;;;8.93;100.00;99347.03;5052580;28;20072;-58
2024/03/18 01:38:26;;;;;;;0.20;0.20;;;;;;;8.88;100.00;99349.56;5061440;28;20045;-57
2024/03/18 01:40:53;;;;;;;0.28;0.28;;;;;;;8.88;100.00;99347.72;5057047;28;20037;-58
2024/03/18 01:43:20;;;;;;;0.20;0.20;;;;;;;8.88;100.00;99341.56;5059656;28;20048;-58
2024/03/18 01:45:47;;;;;;;0.38;0.38;;;;;;;8.95;100.00;99334.25;5053323;28;20479;-58
2024/03/18 01:48:14;;;;;;;0.20;0.20;;;;;;;8.88;100.00;99336.22;5052405;28;20151;-58
2024/03/18 01:50:43;;;;;;;0.20;0.20;;;;;;;8.93;100.00;99328.31;5051463;28;20461;-58
2024/03/18 01:53:10;;;;;;;0.20;0.20;;;;;;;8.90;100.00;99324.25;5055363;28;20060;-58
2024/03/18 01:55:38;;;;;;;0.30;0.30;;;;;;;8.95;100.00;99320.88;5057868;28;20036;-58
2024/03/18 01:58:05;;;;;;;0.30;0.30;;;;;;;9.02;100.00;99318.94;5058338;28;20514;-57
2024/03/18 02:00:35;;;;;;;0.20;0.20;;;;;;;8.97;100.00;99313.47;5050307;28;20049;-58
2024/03/18 02:03:02;;;;;;;;;;;;;;;8.95;100.00;99312.88;5055140;28;20140;-58
2024/03/18 02:05:30;;;;;;;0.30;0.30;;;;;;;9.00;100.00;99307.66;5053458;28;19934;-58
2024/03/18 02:07:59;;;;;;;0.25;0.25;;;;;;;9.06;100.00;99312.91;5052297;28;20120;-58
2024/03/18 02:10:26;;;;;;;0.20;0.20;;;;;;;9.03;100.00;99310.66;5057975;28;20446;-58
2024/03/18 02:12:53;;;;;;;0.20;0.20;;;;;;;9.12;100.00;99311.16;5051610;28;20128;-58
2024/03/18 02:15:21;;;;;;;0.20;0.20;;;;;;;9.08;100.00;99304.63;5053613;28;20422;-58
2024/03/18 02:17:50;;;;;;;0.30;0.30;;;;;;;9.01;100.00;99298.56;5056896;28;20033;-58
2024/03/18 02:20:17;;;;;;;0.30;0.30;;;;;;;9.03;100.00;99296.50;5050356;28;20045;-58
2024/03/18 02:22:47;;;;;;;0.30;0.30;;;;;;;9.07;100.00;99300.34;5058304;28;20537;-58
2024/03/18 02:25:15;;;;;;;0.20;0.20;;;;;;;9.05;100.00;99299.75;5066015;28;20051;-58
2024/03/18 02:27:42;;;;;;;0.30;0.30;;;;;;;9.07;100.00;99295.00;5059212;28;20135;-58
2024/03/18 02:30:10;;;;;;;0.20;0.20;;;;;;;9.07;100.00;99289.66;5055134;28;20127;-58
2024/03/18 02:32:41;;;;;;;0.30;0.30;;;;;;;8.95;100.00;99294.97;5055696;28;20040;-58
2024/03/18 02:35:11;;;;;;;0.30;0.30;;;;;;;8.99;100.00;99290.00;5055959;28;20044;-58
2024/03/18 02:37:39;;;;;;;0.30;0.30;;;;;;;9.02;100.00;99284.97;5058125;28;20041;-58
2024/03/18 02:40:09;;;;;;;0.20;0.20;;;;;;;9.06;100.00;99279.97;5052648;28;20068;-58
2024/03/18 02:42:37;;;;;;;0.25;0.25;;;;;;;9.03;100.00;99280.44;5046483;28;20037;-58
2024/03/18 02:45:08;;;;;;;0.28;0.28;;;;;;;9.04;100.00;99276.75;5058993;28;20044;-57
2024/03/18 02:47:35;;;;;;;0.20;0.20;;;;;;;9.03;100.00;99275.09;5058253;28;20039;-58
2024/03/18 02:50:03;;;;;;;0.20;0.20;;;;;;;9.00;100.00;99270.22;5058084;28;20049;-58
2024/03/18 02:52:30;;;;;;;0.20;0.20;;;;;;;9.02;100.00;99270.81;5052076;28;20094;-58
2024/03/18 02:54:57;;;;;;;0.10;0.10;;;;;;;8.97;100.00;99270.69;5050008;28;20117;-58
2024/03/18 02:57:25;;;;;;;0.30;0.30;;;;;;;8.97;100.00;99266.16;5045684;28;20048;-58
2024/03/18 02:59:52;;;;;;;0.25;0.25;;;;;;;8.87;100.00;99265.91;5061160;28;20040;-57
2024/03/18 03:02:19;;;;;;;0.17;0.17;;;;;;;8.88;100.00;99274.72;5049489;28;20048;-58
2024/03/18 03:04:46;;;;;;;0.30;0.30;;;;;;;8.88;100.00;99270.19;5050454;28;20123;-57
2024/03/18 03:07:12;;;;;;;0.20;0.20;;;;;;;8.91;100.00;99266.25;5050133;28;20131;-58
2024/03/18 03:09:39;;;;;;;0.20;0.20;;;;;;;8.92;100.00;99257.19;5050532;28;20676;-57
2024/03/18 03:12:08;;;;;;;0.20;0.20;;;;;;;8.90;100.00;99259.28;5049788;28;20044;-57
2024/03/18 03:14:37;;;;;;;0.25;0.25;;;;;;;8.80;100.00;99254.50;5053754;28;20052;-57
2024/03/18 03:17:04;;;;;;;0.20;0.20;;;;;;;8.67;100.00;99252.84;5049786;28;20056;-56
2024/03/18 03:19:31;;;;;;;0.30;0.30;;;;;;;8.70;100.00;99249.72;5048299;28;20045;-57
2024/03/18 03:21:58;;;;;;;0.20;0.20;;;;;;;8.71;100.00;99251.38;5054145;28;20554;-57
2024/03/18 03:24:26;;;;;;;0.20;0.20;;;;;;;8.72;100.00;99242.28;5065539;28;20801;-57
2024/03/18 03:26:53;;;;;;;0.20;0.20;;;;;;;8.78;100.00;99251.25;5052817;28;20040;-57
2024/03/18 03:29:21;;;;;;;0.20;0.20;;;;;;;8.81;100.00;99251.63;5060745;28;20044;-57
2024/03/18 03:31:52;;;;;;;0.30;0.30;;;;;;;8.82;100.00;99247.06;5060782;28;20070;-57
2024/03/18 03:34:19;;;;;;;0.30;0.30;;;;;;;8.76;100.00;99251.50;5057970;28;20056;-57
2024/03/18 03:36:46;;;;;;;0.28;0.28;;;;;;;8.75;100.00;99246.38;5050436;28;20095;-57
2024/03/18 03:39:13;;;;;;;0.20;0.20;;;;;;;8.72;100.00;99246.84;5059683;28;20124;-57
2024/03/18 03:41:40;;;;;;;0.20;0.20;;;;;;;8.74;100.00;99250.91;5060055;28;20540;-57
2024/03/18 03:44:08;;;;;;;0.20;0.20;;;;;;;8.71;100.00;99245.19;5053885;28;20403;-57
2024/03/18 03:46:35;;;;;;;0.20;0.20;;;;;;;8.76;100.00;99243.47;5068224;28;20044;-57
2024/03/18 03:49:04;;;;;;;0.30;0.30;;;;;;;8.69;100.00;99241.94;5054775;28;20037;-57
2024/03/18 03:51:31;;;;;;;0.30;0.30;;;;;;;8.61;100.00;99241.25;5057282;28;20055;-58
2024/03/18 03:53:58;;;;;;;0.22;0.22;;;;;;;8.65;100.00;99236.22;5051708;28;20746;-57
2024/03/18 03:56:25;;;;;;;0.20;0.20;;;;;;;8.70;100.00;99230.22;5059840;28;20080;-57
2024/03/18 03:58:51;;;;;;;0.20;0.20;;;;;;;8.67;100.00;99234.16;5053631;28;20597;-57
2024/03/18 04:01:19;;;;;;;0.20;0.20;;;;;;;8.64;100.00;99232.75;5057414;28;20159;-58
2024/03/18 04:03:46;;;;;;;0.25;0.25;;;;;;;8.68;100.00;99233.09;5068234;28;20043;-57
2024/03/18 04:06:14;;;;;;;0.20;0.20;;;;;;;8.68;100.00;99234.97;5057410;28;20098;-57
2024/03/18 04:08:41;;;;;;;0.20;0.20;;;;;;;8.72;100.00;99236.94;5062842;28;20131;-57
2024/03/18 04:11:08;;;;;;;0.30;0.30;;;;;;;8.62;100.00;99234.03;5053476;28;20529;-57
2024/03/18 04:13:35;;;;;;;0.30;0.30;;;;;;;8.63;100.00;99238.31;5055406;28;20565;-57
2024/03/18 04:16:02;;;;;;;0.22;0.22;;;;;;;8.69;100.00;99242.75;5058038;28;20453;-57
2024/03/18 04:18:30;;;;;;;0.28;0.28;;;;;;;8.75;100.00;99236.47;5055485;28;20074;-57
2024/03/18 04:20:59;;;;;;;0.30;0.30;;;;;;;8.76;100.00;99238.13;5059142;28;20047;-57
2024/03/18 04:23:29;;;;;;;0.20;0.20;;;;;;;8.83;100.00;99238.81;5062807;28;20055;-57
2024/03/18 04:25:57;;;;;;;0.20;0.20;;;;;;;8.77;100.00;99234.41;5057919;28;20045;-57
2024/03/18 04:28:24;;;;;;;0.30;0.30;;;;;;;8.78;100.00;99236.00;5060060;28;20106;-57
2024/03/18 04:30:51;;;;;;;0.20;0.20;;;;;;;8.77;100.00;99225.56;5057388;28;20135;-57
2024/03/18 04:33:18;;;;;;;0.30;0.30;;;;;;;8.77;100.00;99223.72;5055287;28;20118;-57
2024/03/18 04:35:45;;;;;;;0.20;0.20;;;;;;;8.74;100.00;99218.84;5053419;28;20559;-57
2024/03/18 04:38:12;;;;;;;0.22;0.22;;;;;;;8.73;100.00;99213.72;5050551;28;20045;-57
2024/03/18 04:40:41;;;;;;;0.20;0.20;;;;;;;8.59;100.00;99205.91;5062572;28;20068;-57
2024/03/18 04:43:08;;;;;;;0.20;0.20;;;;;;;8.58;100.00;99211.47;5055774;28;20037;-57
2024/03/18 04:45:35;;;;;;;0.20;0.20;;;;;;;8.61;100.00;99203.00;5048456;28;20068;-57
2024/03/18 04:48:03;;;;;;;0.20;0.20;;;;;;;8.65;100.00;99209.53;5056318;28;20049;-57
2024/03/18 04:50:30;;;;;;;0.25;0.25;;;;;;;8.66;100.00;99211.13;5053601;28;20205;-57
2024/03/18 04:52:57;;;;;;;0.20;0.20;;;;;;;8.61;100.00;99213.69;5058138;28;20135;-57
2024/03/18 04:55:24;;;;;;;0.30;0.30;;;;;;;8.58;100.00;99208.81;5045755;28;20469;-57
2024/03/18 04:57:55;;;;;;;0.30;0.30;;;;;;;8.61;100.00;99211.00;5053307;28;20120;-57
2024/03/18 05:00:22;;;;;;;0.28;0.28;;;;;;;8.59;100.00;99205.91;5059082;28;20102;-58
2024/03/18 05:02:50;;;;;;;0.25;0.25;;;;;;;8.59;100.00;99210.44;5058410;28;20053;-57
2024/03/18 05:05:17;;;;;;;0.20;0.20;;;;;;;8.55;100.00;99210.06;5057280;28;20037;-57
2024/03/18 05:07:44;;;;;;;0.20;0.20;;;;;;;8.63;100.00;99206.25;5058264;28;20052;-57
2024/03/18 05:10:12;;;;;;;0.25;0.25;;;;;;;8.58;100.00;99214.16;5054210;28;20139;-58
2024/03/18 05:12:39;;;;;;;0.25;0.25;;;;;;;8.58;100.00;99214.97;5050416;28;20051;-57
2024/03/18 05:15:08;;;;;;;0.28;0.28;;;;;;;8.49;100.00;99205.66;5057464;28;20140;-57
2024/03/18 05:17:34;;;;;;;0.22;0.22;;;;;;;8.49;100.00;99200.31;5050455;28;20039;-58
2024/03/18 05:20:03;;;;;;;0.40;0.40;;;;;;;8.43;100.00;99207.38;5053215;28;20461;-58
2024/03/18 05:22:32;;;;;;;0.30;0.30;;;;;;;8.40;100.00;99205.16;5049551;28;20037;-58
2024/03/18 05:25:05;;;;;;;0.20;0.20;;;;;;;8.40;100.00;99207.84;5049566;28;20037;-57
2024/03/18 05:27:32;;;;;;;0.30;0.30;;;;;;;8.41;100.00;99203.31;5052257;28;20114;-57
2024/03/18 05:30:00;;;;;;;0.30;0.30;;;;;;;8.42;100.00;99200.41;5050200;28;20044;-59
2024/03/18 05:32:28;;;;;;;0.22;0.22;;;;;;;8.41;100.00;99201.47;5050044;28;20045;-57
2024/03/18 05:34:57;;;;;;;0.20;0.20;;;;;;;8.41;100.00;99208.66;5049741;28;20043;-57
2024/03/18 05:37:25;;;;;;;0.20;0.20;;;;;;;8.39;100.00;99208.91;5047881;28;20694;-57
2024/03/18 05:39:52;;;;;;;0.30;0.30;;;;;;;8.29;100.00;99211.28;5052370;28;20045;-57
2024/03/18 05:42:19;;;;;;;0.40;0.40;;;;;;;8.27;100.00;99209.88;5051180;28;20047;-57
2024/03/18 05:44:46;;;;;;;0.40;0.40;;;;;;;8.28;100.00;99209.63;5050608;28;20123;-57
2024/03/18 05:47:13;;;;;;;0.40;0.40;;;;;;;8.33;100.00;99208.94;5056399;28;20071;-58
2024/03/18 05:49:44;;;;;;;0.50;0.50;;;;;;;8.30;100.00;99207.56;5064813;28;20467;-57
2024/03/18 05:52:11;;;;;;;0.38;0.38;;;;;;;8.27;100.00;99213.34;5054843;28;20094;-58
2024/03/18 05:54:39;;;;;;;0.30;0.30;;;;;;;8.34;100.00;99219.41;5050624;28;20153;-57
2024/03/18 05:57:06;;;;;;;0.40;0.40;;;;;;;8.39;100.00;99226.75;5049602;28;20056;-57
2024/03/18 05:59:33;;;;;;;0.30;0.30;;;;;;;8.32;100.00;99226.03;5052283;28;20060;-60
2024/03/18 06:02:00;;;;;;;0.30;0.30;;;;;;;8.34;100.00;99226.63;5052023;28;20049;-57
2024/03/18 06:04:27;;;;;;;0.30;0.30;;;;;;;8.37;100.00;99234.97;5054191;28;20049;-58
2024/03/18 06:06:59;;;;;;;0.50;0.50;;;;;;;8.28;100.00;99231.00;5057038;28;20790;-57
2024/03/18 06:09:27;;;;;;;0.38;0.38;;;;;;;8.29;100.00;99237.16;5054505;28;20393;-58
2024/03/18 06:11:54;;;;;;;0.30;0.30;;;;;;;8.39;100.00;99243.63;5053386;28;20054;-57
2024/03/18 06:14:21;;;;;;;0.40;0.40;;;;;;;8.35;100.00;99241.59;5056631;28;20128;-57
2024/03/18 06:16:48;;;;;;;0.32;0.32;;;;;;;8.43;100.00;99249.31;5054287;28;20066;-57
2024/03/18 06:19:17;;;;;;;0.40;0.40;;;;;;;8.43;100.00;99250.09;5058306;28;20044;-57
2024/03/18 06:21:45;;;;;;;0.20;0.20;;;;;;;8.51;100.00;99250.81;5062869;28;20051;-57
2024/03/18 06:24:22;;;;;;;0.30;0.30;;;;;;;8.53;100.00;99248.75;5060563;28;20067;-58
2024/03/18 06:26:49;;;;;;;0.30;0.30;;;;;;;8.52;100.00;99253.28;5053699;28;20047;-57
2024/03/18 06:29:16;;;;;;;0.30;0.30;;;;;;;8.59;100.00;99253.19;5053563;28;20052;-57
2024/03/18 06:31:44;;;;;;;0.30;0.30;;;;;;;8.65;100.00;99252.25;5052266;28;20052;-57
2024/03/18 06:34:11;;;;;;;0.20;0.20;;;;;;;8.68;100.00;99251.81;5051360;28;20049;-57
2024/03/18 06:36:38;;;;;;;0.30;0.30;;;;;;;8.67;100.00;99255.53;5051732;28;20041;-57
2024/03/18 06:39:09;;;;;;;0.30;0.30;;;;;;;8.64;100.00;99251.47;5060961;28;20549;-57
2024/03/18 06:41:38;;;;;;;0.22;0.22;;;;;;;8.60;100.00;99244.13;5055079;28;20040;-57
2024/03/18 06:44:05;;;;;;;0.30;0.30;;;;;;;8.38;100.00;99247.28;5063183;28;20067;-57
2024/03/18 06:46:32;;;;;;;0.30;0.30;;;;;;;8.42;100.00;99253.84;5050080;28;20435;-57
2024/03/18 06:48:59;;;;;;;0.20;0.20;;;;;;;8.55;100.00;99249.34;5052400;28;20407;-57
2024/03/18 06:51:26;;;;;;;0.30;0.30;;;;;;;8.55;100.00;99255.50;5043514;28;20045;-57
2024/03/18 06:53:53;;;;;;;0.30;0.30;;;;;;;8.83;100.00;99262.06;5050896;28;20047;-57
2024/03/18 06:56:20;;;;;;;0.30;0.30;;;;;;;8.70;100.00;99259.59;5051065;28;20072;-58
2024/03/18 06:58:48;;;;;;;0.25;0.25;;;;;;;8.58;100.00;99259.56;5052588;28;20051;-57
2024/03/18 07:01:15;;;;;;;0.17;0.17;;;;;;;8.54;100.00;99258.41;5055702;28;20051;-57
2024/03/18 07:03:45;;;;;;;0.20;0.20;;;;;;;8.74;100.00;99256.25;5054141;28;20098;-58
2024/03/18 07:06:12;;;;;;;0.20;0.20;;;;;;;8.83;100.00;99259.38;5047562;28;20053;-57
2024/03/18 07:08:40;;;;;;;0.30;0.30;;;;;;;9.02;100.00;99271.63;5053784;28;20048;-58
2024/03/18 07:11:07;;;;;;;0.30;0.30;;;;;;;9.16;100.00;99272.22;5061985;28;20052;-57
2024/03/18 07:13:36;;;;;;;0.28;0.28;;;;;;;9.29;100.00;99273.84;5054266;28;20045;-57
2024/03/18 07:16:06;;;;;;;0.30;0.30;;;;;;;9.38;100.00;99277.78;5056910;28;20520;-58
2024/03/18 07:18:33;;;;;;;0.30;0.30;;;;;;;9.39;100.00;99263.38;5046355;28;20051;-58
2024/03/18 07:21:00;;;;;;;0.20;0.20;;;;;;;9.54;100.00;99270.94;5053829;28;20045;-57
2024/03/18 07:23:27;;;;;;;0.20;0.20;;;;;;;9.68;100.00;99271.47;5052245;28;20079;-58
2024/03/18 07:25:54;;;;;;;0.20;0.20;;;;;;;9.82;100.00;99272.03;5053947;28;20733;-57
2024/03/18 07:28:21;;;;;;;0.17;0.17;;;;;;;9.65;100.00;99261.25;5053087;28;20055;-57
2024/03/18 07:30:48;;;;;;;0.30;0.30;;;;;;;9.61;100.00;99258.25;5051410;28;20136;-58
2024/03/18 07:33:16;;;;;;;0.20;0.20;;;;;;;9.44;100.00;99265.34;5046578;28;20041;-57
2024/03/18 07:35:43;;;;;;;0.22;0.22;;;;;;;9.51;100.00;99260.69;5039732;28;20041;-57
2024/03/18 07:38:10;;;;;;;0.20;0.20;;;;;;;9.66;100.00;99263.69;5049577;28;20088;-57
2024/03/18 07:40:38;;;;;;;0.30;0.30;;;;;;;9.76;100.00;99263.09;5057395;28;20515;-57
2024/03/18 07:43:11;;;;;;;0.20;0.20;;;;;;;9.90;100.00;99247.56;5053675;28;20051;-58
2024/03/18 07:45:38;;;;;;;0.20;0.20;;;;;;;10.15;100.00;99245.38;5056478;28;20049;-58
2024/03/18 07:48:06;;;;;;;0.20;0.20;;;;;;;10.17;100.00;99241.66;5056286;28;20037;-57
2024/03/18 07:50:35;;;;;;;0.20;0.20;;;;;;;10.46;100.00;99240.63;5058696;28;20056;-57
2024/03/18 07:53:02;;;;;;;0.20;0.20;;;;;;;10.73;100.00;99238.16;5057253;28;20115;-58
2024/03/18 07:55:29;;;;;;;0.20;0.20;;;;;;;10.66;100.00;99234.81;5060538;28;20066;-57
2024/03/18 07:57:59;;;;;;;0.20;0.20;;;;;;;10.87;100.00;99227.91;5055814;28;21906;-57
2024/03/18 08:00:26;;;;;;;0.20;0.20;;;;;;;10.35;100.00;99218.19;5056999;28;20041;-57
2024/03/18 08:02:53;;;;;;;0.30;0.30;;;;;;;10.57;100.00;99214.81;5058812;28;20498;-57
2024/03/18 08:05:20;;;;;;;0.30;0.30;;;;;;;10.35;100.00;99214.69;5061433;28;20049;-57
2024/03/18 08:07:48;;;;;;;0.30;0.30;;;;;;;10.79;100.00;99213.03;5058825;28;20102;-57
2024/03/18 08:10:15;;;;;;;0.20;0.20;;;;;;;10.84;100.00;99220.34;5051041;28;20033;-57
2024/03/18 08:12:43;;;;;;;0.30;0.30;;;;;;;11.87;100.00;99214.53;5054872;28;20534;-57
2024/03/18 08:15:15;;;;;;;0.30;0.30;;;;;;;12.47;100.00;99220.78;5059469;28;20052;-58
2024/03/18 08:17:42;;;;;;;0.28;0.28;;;;;;;12.02;100.00;99230.00;5055534;28;20037;-58
2024/03/18 08:20:10;;;;;;;0.20;0.20;;;;;;;12.17;100.00;99222.09;5053075;28;20037;-58
2024/03/18 08:22:37;;;;;;;0.20;0.20;;;;;;;12.36;100.00;99230.63;5053375;28;20049;-58
2024/03/18 08:25:08;;;;;;;0.20;0.20;;;;;;;13.27;100.00;99224.38;5052896;28;20059;-58
2024/03/18 08:27:35;;;;;;;0.20;0.20;;;;;;;13.54;100.00;99221.56;5055024;28;20041;-58
2024/03/18 08:30:02;;;;;;;0.20;0.20;;;;;;;14.28;100.00;99222.38;5060131;28;20115;-58
2024/03/18 08:32:29;;;;;;;0.13;0.13;;;;;;;14.44;100.00;99229.38;5048149;28;20068;-58
2024/03/18 08:34:56;;;;;;;0.17;0.17;;;;;;;13.57;100.00;99234.50;5049119;28;20052;-58
2024/03/18 08:37:24;;;;;;;0.15;0.15;;;;;;;13.48;100.00;99246.03;5051133;28;20071;-58
2024/03/18 08:39:54;;;;;;;0.10;0.10;;;;;;;13.56;100.00;99232.88;5055624;28;20048;-58
2024/03/18 08:42:22;;;;;;;0.10;0.10;;;;;;;13.42;100.00;99237.13;5053814;28;20138;-58
2024/03/18 08:44:50;;;;;;;0.10;0.10;;;;;;;13.18;100.00;99236.69;5046095;28;20777;-58
2024/03/18 08:47:20;;;;;;;0.20;0.20;;;;;;;13.45;100.00;99246.56;5054283;28;20411;-58
2024/03/18 08:49:49;;;;;;;0.10;0.10;;;;;;;13.73;100.00;99248.06;5052449;28;20045;-58
2024/03/18 08:52:16;;;;;;;0.10;0.10;;;;;;;13.93;100.00;99253.53;5059127;28;20137;-58
2024/03/18 08:54:43;;;;;;;0.10;0.10;;;;;;;13.57;100.00;99249.84;5055972;28;20037;-58
2024/03/18 08:57:11;;;;;;;0.10;0.10;;;;;;;12.68;100.00;99248.66;5056676;28;20141;-58
2024/03/18 08:59:39;;;;;;;0.10;0.10;;;;;;;12.93;100.00;99248.88;5054575;28;20055;-58
2024/03/18 09:02:06;;;;;;;0.10;0.10;;;;;;;13.28;100.00;99254.78;5059268;28;20086;-58
2024/03/18 09:04:33;;;;;;;0.20;0.20;;;;;;;13.49;100.00;99255.75;5046758;28;20049;-58
2024/03/18 09:07:00;;;;;;;0.20;0.20;;;;;;;13.42;100.00;99253.25;5050022;28;20760;-58
2024/03/18 09:09:28;;;;;;;0.10;0.10;;;;;;;14.04;100.00;99257.06;5061301;28;20044;-58
2024/03/18 09:11:55;;;;;;;0.20;0.20;;;;;;;15.07;97.68;99258.84;5054702;28;20044;-58
2024/03/18 09:14:22;;;;;;;0.10;0.10;;;;;;;15.73;95.46;99257.94;5048830;28;20047;-58
2024/03/18 09:16:52;;;;;;;0.10;0.10;;;;;;;15.33;92.57;99258.81;5053176;28;20102;-58
2024/03/18 09:19:19;;;;;;;0.10;0.10;;;;;;;14.69;96.47;99262.91;5062225;28;20380;-58
2024/03/18 09:21:47;;;;;;;0.20;0.20;;;;;;;13.39;100.00;99261.88;5052482;28;20037;-58
2024/03/18 09:24:14;;;;;;;0.10;0.10;;;;;;;14.37;100.00;99258.50;5051957;28;20589;-58
2024/03/18 09:26:41;;;;;;;0.20;0.20;;;;;;;15.07;95.01;99252.63;5056018;28;20149;-58
2024/03/18 09:29:08;;;;;;;0.10;0.10;;;;;;;15.63;92.51;99254.44;5054264;28;20683;-58
2024/03/18 09:31:36;;;;;;;0.10;0.10;;;;;;;15.59;90.67;99256.88;5052828;28;20053;-58
2024/03/18 09:34:04;;;;;;;0.10;0.10;;;;;;;15.61;90.64;99259.31;5058656;28;20062;-58
2024/03/18 09:36:31;;;;;;;0.00;0.00;;;;;;;15.77;92.03;99266.28;5053850;28;20174;-58
2024/03/18 09:38:58;;;;;;;0.10;0.10;;;;;;;15.52;95.96;99267.16;5063861;28;20611;-58
2024/03/18 09:41:25;;;;;;;0.00;0.00;;;;;;;16.28;91.40;99260.66;5064007;28;20052;-58
2024/03/18 09:43:52;;;;;;;0.20;0.20;;;;;;;16.82;88.02;99267.09;5055557;28;20049;-58
2024/03/18 09:46:21;;;;;;;0.10;0.10;;;;;;;16.76;84.76;99268.22;5058421;28;20068;-58
2024/03/18 09:48:48;;;;;;;0.10;0.10;;;;;;;15.77;90.27;99266.28;5055071;28;20423;-57
2024/03/18 09:51:17;;;;;;;0.10;0.10;;;;;;;17.06;86.50;99271.78;5059195;28;20135;-58
2024/03/18 09:53:45;;;;;;;0.10;0.10;;;;;;;17.50;79.75;99268.09;5058339;28;20505;-58
2024/03/18 09:56:13;;;;;;;0.00;0.00;;;;;;;16.84;86.63;99264.91;5057166;28;20491;-58
2024/03/18 09:58:40;;;;;;;0.00;0.00;;;;;;;16.84;83.75;99261.41;5060249;28;20040;-58
2024/03/18 10:01:07;;;;;;;0.10;0.10;;;;;;;16.52;84.96;99258.06;5063231;28;20442;-58
2024/03/18 10:03:34;;;;;;;0.10;0.10;;;;;;;16.68;81.61;99249.88;5060786;28;20143;-58
2024/03/18 10:06:02;;;;;;;0.10;0.10;;;;;;;16.28;83.87;99257.97;5052293;28;21124;-58
2024/03/18 10:08:33;;;;;;;0.00;0.00;;;;;;;15.98;87.17;99264.34;5056684;28;20048;-58
2024/03/18 10:11:00;;;;;;;0.10;0.10;;;;;;;16.25;87.77;99268.50;5056463;28;20439;-58
2024/03/18 10:13:27;;;;;;;0.10;0.10;;;;;;;16.23;86.99;99270.72;5061023;28;20098;-57
2024/03/18 10:15:56;;;;;;;0.10;0.10;;;;;;;16.21;87.85;99272.88;5053928;28;20052;-57
2024/03/18 10:18:26;;;;;;;0.10;0.10;;;;;;;16.92;86.08;99277.84;5055969;28;20040;-57
2024/03/18 10:20:54;;;;;;;0.10;0.10;;;;;;;17.15;83.09;99272.81;5051548;28;20058;-57
2024/03/18 10:23:21;;;;;;;0.10;0.10;;;;;;;16.63;85.45;99285.09;5057351;28;20057;-57
2024/03/18 10:25:49;;;;;;;0.10;0.10;;;;;;;16.97;86.96;99288.66;5049274;28;20053;-58
2024/03/18 10:28:18;;;;;;;0.10;0.10;;;;;;;16.18;86.52;99282.34;5050109;28;20041;-57
2024/03/18 10:30:46;;;;;;;0.10;0.10;;;;;;;16.11;90.62;99279.16;5057100;28;20522;-57
2024/03/18 10:33:12;;;;;;;0.10;0.10;;;;;;;15.92;88.65;99287.84;5055526;28;20075;-58
2024/03/18 10:35:39;;;;;;;0.10;0.10;;;;;;;16.47;85.97;99277.03;5049554;28;20505;-58
2024/03/18 10:38:07;;;;;;;0.00;0.00;;;;;;;16.36;85.87;99275.50;5063630;28;20056;-58
2024/03/18 10:40:35;;;;;;;0.10;0.10;;;;;;;16.03;89.58;99277.81;5037667;28;20097;-58
2024/03/18 10:43:05;;;;;;;0.00;0.00;;;;;;;15.74;93.11;99270.34;5065406;28;20040;-57
2024/03/18 10:45:34;;;;;;;0.10;0.10;;;;;;;16.12;91.91;99280.75;5050836;28;20049;-58
2024/03/18 10:48:03;;;;;;;0.10;0.10;;;;;;;16.17;91.71;99278.84;5053706;28;20037;-57
2024/03/18 10:50:31;;;;;;;0.10;0.10;;;;;;;16.23;91.84;99287.75;5053799;28;20044;-57
2024/03/18 10:52:59;;;;;;;0.10;0.10;;;;;;;16.34;88.67;99283.06;5059844;28;20741;-57
2024/03/18 10:55:26;;;;;;;0.10;0.10;;;;;;;16.93;87.13;99279.47;5064842;28;20055;-57
2024/03/18 10:57:55;;;;;;;0.10;0.10;;;;;;;16.92;84.62;99279.75;5057864;28;20830;-58
2024/03/18 11:00:24;;;;;;;0.10;0.10;;;;;;;16.76;84.21;99284.44;5057635;28;20040;-58
2024/03/18 11:02:59;;;;;;;0.10;0.10;;;;;;;16.46;90.29;99286.25;5054670;28;20063;-58
2024/03/18 11:05:27;;;;;;;0.10;0.10;;;;;;;15.96;89.21;99288.13;5053783;28;20051;-58
2024/03/18 11:07:56;;;;;;;0.10;0.10;;;;;;;16.53;86.20;99278.66;5056925;28;20049;-57
2024/03/18 11:10:24;;;;;;;0.10;0.10;;;;;;;16.95;83.42;99288.13;5059775;28;20068;-57
2024/03/18 11:12:51;;;;;;;0.10;0.10;;;;;;;16.26;85.12;99289.88;5055923;28;20048;-58
2024/03/18 11:15:19;;;;;;;0.10;0.10;;;;;;;15.32;93.70;99285.03;5056280;28;20102;-57
2024/03/18 11:17:49;;;;;;;0.10;0.10;;;;;;;15.82;89.53;99284.38;5052400;28;20121;-57
2024/03/18 11:20:17;;;;;;;0.10;0.10;;;;;;;15.80;91.10;99284.69;5053330;28;20098;-57
2024/03/18 11:22:48;;;;;;;0.10;0.10;;;;;;;16.01;88.55;99288.09;5055540;28;20041;-58
2024/03/18 11:25:22;;;;;;;0.10;0.10;;;;;;;16.08;88.93;99277.81;5057307;28;20039;-57
2024/03/18 11:27:50;;;;;;;0.10;0.10;;;;;;;17.04;83.22;99281.00;5056648;28;20165;-58
2024/03/18 11:30:30;;;;;;;0.10;0.10;;;;;;;16.28;88.57;99278.78;5056607;28;20047;-58
2024/03/18 11:33:00;;;;;;;0.10;0.10;;;;;;;17.00;85.81;99279.16;5056402;28;20064;-58
2024/03/18 11:35:27;;;;;;;0.10;0.10;;;;;;;17.03;82.62;99284.81;5047153;28;20406;-58